sensor_id;sensor_type;location;lat;lon;timestamp;P1;durP1;ratioP1;P2;durP2;ratioP2
71648;SDS011;59492;45.638;11.714;2022-12-15T00:00:47;10.80;;;8.30;;
71648;SDS011;59492;45.638;11.714;2022-12-15T00:03:31;8.70;;;7.80;;
71648;SDS011;59492;45.638;11.714;2022-12-15T00:06:15;9.90;;;7.40;;
71648;SDS011;59492;45.638;11.714;2022-12-15T00:08:59;9.20;;;7.40;;
71648;SDS011;59492;45.638;11.714;2022-12-15T00:11:43;9.70;;;7.90;;
71648;SDS011;59492;45.638;11.714;2022-12-15T00:14:27;11.00;;;8.30;;
71648;SDS011;59492;45.638;11.714;2022-12-15T00:17:11;8.90;;;7.40;;
71648;SDS011;59492;45.638;11.714;2022-12-15T00:19:55;9.20;;;8.20;;
71648;SDS011;59492;45.638;11.714;2022-12-15T00:22:39;12.60;;;9.00;;
71648;SDS011;59492;45.638;11.714;2022-12-15T00:25:23;12.40;;;8.60;;
71648;SDS011;59492;45.638;11.714;2022-12-15T00:28:07;10.60;;;8.40;;
71648;SDS011;59492;45.638;11.714;2022-12-15T00:30:52;10.60;;;8.50;;
71648;SDS011;59492;45.638;11.714;2022-12-15T00:33:36;8.50;;;7.10;;
71648;SDS011;59492;45.638;11.714;2022-12-15T00:36:21;11.20;;;7.90;;
71648;SDS011;59492;45.638;11.714;2022-12-15T00:39:05;11.40;;;8.50;;
71648;SDS011;59492;45.638;11.714;2022-12-15T00:41:31;9.70;;;8.00;;
71648;SDS011;59492;45.638;11.714;2022-12-15T00:43:57;10.80;;;8.70;;
71648;SDS011;59492;45.638;11.714;2022-12-15T00:46:23;11.20;;;8.00;;
71648;SDS011;59492;45.638;11.714;2022-12-15T00:49:07;10.00;;;8.10;;
71648;SDS011;59492;45.638;11.714;2022-12-15T00:51:53;10.00;;;8.00;;
71648;SDS011;59492;45.638;11.714;2022-12-15T00:54:38;8.80;;;7.80;;
71648;SDS011;59492;45.638;11.714;2022-12-15T00:57:23;9.80;;;7.50;;
71648;SDS011;59492;45.638;11.714;2022-12-15T01:00:07;9.10;;;7.50;;
71648;SDS011;59492;45.638;11.714;2022-12-15T01:02:54;10.40;;;8.20;;
71648;SDS011;59492;45.638;11.714;2022-12-15T01:05:38;11.00;;;8.20;;
71648;SDS011;59492;45.638;11.714;2022-12-15T01:08:22;11.50;;;8.60;;
71648;SDS011;59492;45.638;11.714;2022-12-15T01:11:07;11.40;;;8.70;;
71648;SDS011;59492;45.638;11.714;2022-12-15T01:13:52;10.70;;;8.80;;
71648;SDS011;59492;45.638;11.714;2022-12-15T01:16:37;9.50;;;7.90;;
71648;SDS011;59492;45.638;11.714;2022-12-15T01:19:21;12.80;;;9.00;;
71648;SDS011;59492;45.638;11.714;2022-12-15T01:22:06;9.60;;;7.60;;
71648;SDS011;59492;45.638;11.714;2022-12-15T01:24:33;9.60;;;7.90;;
71648;SDS011;59492;45.638;11.714;2022-12-15T01:26:59;9.70;;;7.60;;
71648;SDS011;59492;45.638;11.714;2022-12-15T01:29:26;11.70;;;8.80;;
71648;SDS011;59492;45.638;11.714;2022-12-15T01:31:52;10.90;;;8.30;;
71648;SDS011;59492;45.638;11.714;2022-12-15T01:34:22;9.60;;;8.50;;
71648;SDS011;59492;45.638;11.714;2022-12-15T01:36:57;12.50;;;8.70;;
71648;SDS011;59492;45.638;11.714;2022-12-15T01:39:24;10.30;;;8.70;;
71648;SDS011;59492;45.638;11.714;2022-12-15T01:42:13;10.40;;;8.50;;
71648;SDS011;59492;45.638;11.714;2022-12-15T01:44:40;12.00;;;9.20;;
71648;SDS011;59492;45.638;11.714;2022-12-15T01:47:07;9.40;;;7.60;;
71648;SDS011;59492;45.638;11.714;2022-12-15T01:49:39;10.70;;;8.30;;
71648;SDS011;59492;45.638;11.714;2022-12-15T01:52:08;10.70;;;8.80;;
71648;SDS011;59492;45.638;11.714;2022-12-15T01:57:32;11.20;;;8.80;;
71648;SDS011;59492;45.638;11.714;2022-12-15T02:00:02;11.60;;;8.90;;
71648;SDS011;59492;45.638;11.714;2022-12-15T02:02:31;13.30;;;9.30;;
71648;SDS011;59492;45.638;11.714;2022-12-15T02:04:59;11.00;;;9.20;;
71648;SDS011;59492;45.638;11.714;2022-12-15T02:07:30;11.10;;;9.20;;
71648;SDS011;59492;45.638;11.714;2022-12-15T02:09:59;11.40;;;8.40;;
71648;SDS011;59492;45.638;11.714;2022-12-15T02:12:41;9.00;;;8.00;;
71648;SDS011;59492;45.638;11.714;2022-12-15T02:18:09;12.00;;;8.80;;
71648;SDS011;59492;45.638;11.714;2022-12-15T02:32:08;10.70;;;8.80;;
71648;SDS011;59492;45.638;11.714;2022-12-15T02:34:54;9.40;;;7.90;;
71648;SDS011;59492;45.638;11.714;2022-12-15T02:37:31;9.40;;;8.40;;
71648;SDS011;59492;45.638;11.714;2022-12-15T02:40:00;12.30;;;9.00;;
71648;SDS011;59492;45.638;11.714;2022-12-15T02:42:27;9.70;;;8.20;;
71648;SDS011;59492;45.638;11.714;2022-12-15T02:44:56;10.00;;;8.20;;
71648;SDS011;59492;45.638;11.714;2022-12-15T02:47:31;11.20;;;9.00;;
71648;SDS011;59492;45.638;11.714;2022-12-15T03:04:05;8.80;;;7.90;;
71648;SDS011;59492;45.638;11.714;2022-12-15T03:06:34;9.40;;;8.50;;
71648;SDS011;59492;45.638;11.714;2022-12-15T03:08:59;11.70;;;8.90;;
71648;SDS011;59492;45.638;11.714;2022-12-15T03:11:26;10.20;;;9.10;;
71648;SDS011;59492;45.638;11.714;2022-12-15T03:13:53;11.00;;;8.80;;
71648;SDS011;59492;45.638;11.714;2022-12-15T03:16:19;10.20;;;9.00;;
71648;SDS011;59492;45.638;11.714;2022-12-15T03:18:45;10.80;;;8.80;;
71648;SDS011;59492;45.638;11.714;2022-12-15T03:21:12;11.80;;;9.60;;
71648;SDS011;59492;45.638;11.714;2022-12-15T03:23:37;11.90;;;8.90;;
71648;SDS011;59492;45.638;11.714;2022-12-15T03:26:03;9.00;;;7.90;;
71648;SDS011;59492;45.638;11.714;2022-12-15T03:28:31;10.20;;;8.20;;
71648;SDS011;59492;45.638;11.714;2022-12-15T03:30:57;9.90;;;8.70;;
71648;SDS011;59492;45.638;11.714;2022-12-15T03:33:22;10.30;;;8.50;;
71648;SDS011;59492;45.638;11.714;2022-12-15T03:35:48;9.50;;;8.40;;
71648;SDS011;59492;45.638;11.714;2022-12-15T03:38:15;10.10;;;8.80;;
71648;SDS011;59492;45.638;11.714;2022-12-15T03:40:41;11.30;;;9.20;;
71648;SDS011;59492;45.638;11.714;2022-12-15T03:43:07;10.50;;;9.20;;
71648;SDS011;59492;45.638;11.714;2022-12-15T03:45:32;10.70;;;9.40;;
71648;SDS011;59492;45.638;11.714;2022-12-15T03:47:58;10.60;;;9.30;;
71648;SDS011;59492;45.638;11.714;2022-12-15T03:50:24;9.70;;;8.70;;
71648;SDS011;59492;45.638;11.714;2022-12-15T03:52:54;10.70;;;8.60;;
71648;SDS011;59492;45.638;11.714;2022-12-15T03:55:22;9.80;;;8.60;;
71648;SDS011;59492;45.638;11.714;2022-12-15T03:57:48;10.00;;;8.50;;
71648;SDS011;59492;45.638;11.714;2022-12-15T04:00:15;11.90;;;9.60;;
71648;SDS011;59492;45.638;11.714;2022-12-15T04:02:42;9.70;;;8.60;;
71648;SDS011;59492;45.638;11.714;2022-12-15T04:05:09;10.40;;;8.90;;
71648;SDS011;59492;45.638;11.714;2022-12-15T04:07:41;11.90;;;9.50;;
71648;SDS011;59492;45.638;11.714;2022-12-15T04:10:07;11.70;;;9.30;;
71648;SDS011;59492;45.638;11.714;2022-12-15T04:12:33;11.40;;;8.30;;
71648;SDS011;59492;45.638;11.714;2022-12-15T04:14:58;9.70;;;8.50;;
71648;SDS011;59492;45.638;11.714;2022-12-15T04:17:24;10.30;;;8.50;;
71648;SDS011;59492;45.638;11.714;2022-12-15T04:19:49;9.90;;;8.80;;
71648;SDS011;59492;45.638;11.714;2022-12-15T04:22:40;12.30;;;9.20;;
71648;SDS011;59492;45.638;11.714;2022-12-15T04:25:09;10.40;;;8.90;;
71648;SDS011;59492;45.638;11.714;2022-12-15T04:27:56;11.10;;;9.40;;
71648;SDS011;59492;45.638;11.714;2022-12-15T04:30:41;9.60;;;8.40;;
71648;SDS011;59492;45.638;11.714;2022-12-15T04:33:30;10.70;;;9.00;;
71648;SDS011;59492;45.638;11.714;2022-12-15T04:36:15;10.60;;;8.60;;
71648;SDS011;59492;45.638;11.714;2022-12-15T04:39:01;10.40;;;8.80;;
71648;SDS011;59492;45.638;11.714;2022-12-15T04:41:48;9.70;;;8.40;;
71648;SDS011;59492;45.638;11.714;2022-12-15T04:44:33;10.30;;;9.00;;
71648;SDS011;59492;45.638;11.714;2022-12-15T04:47:17;11.10;;;9.20;;
71648;SDS011;59492;45.638;11.714;2022-12-15T04:50:01;11.40;;;8.90;;
71648;SDS011;59492;45.638;11.714;2022-12-15T04:52:46;10.90;;;9.40;;
71648;SDS011;59492;45.638;11.714;2022-12-15T04:55:33;12.10;;;9.40;;
71648;SDS011;59492;45.638;11.714;2022-12-15T04:58:19;11.30;;;9.30;;
71648;SDS011;59492;45.638;11.714;2022-12-15T05:01:03;10.30;;;8.00;;
71648;SDS011;59492;45.638;11.714;2022-12-15T05:03:47;10.10;;;8.70;;
71648;SDS011;59492;45.638;11.714;2022-12-15T05:06:31;9.90;;;8.40;;
71648;SDS011;59492;45.638;11.714;2022-12-15T05:09:15;9.60;;;8.60;;
71648;SDS011;59492;45.638;11.714;2022-12-15T05:11:59;9.40;;;8.40;;
71648;SDS011;59492;45.638;11.714;2022-12-15T05:14:43;9.90;;;8.10;;
71648;SDS011;59492;45.638;11.714;2022-12-15T05:17:28;10.40;;;8.80;;
71648;SDS011;59492;45.638;11.714;2022-12-15T05:20:12;10.40;;;8.60;;
71648;SDS011;59492;45.638;11.714;2022-12-15T05:22:57;11.40;;;9.10;;
71648;SDS011;59492;45.638;11.714;2022-12-15T05:25:41;9.40;;;8.40;;
71648;SDS011;59492;45.638;11.714;2022-12-15T05:28:26;9.00;;;7.90;;
71648;SDS011;59492;45.638;11.714;2022-12-15T05:31:11;9.30;;;7.80;;
71648;SDS011;59492;45.638;11.714;2022-12-15T05:33:56;10.20;;;8.80;;
71648;SDS011;59492;45.638;11.714;2022-12-15T05:36:23;9.60;;;8.50;;
71648;SDS011;59492;45.638;11.714;2022-12-15T05:38:49;10.60;;;8.40;;
71648;SDS011;59492;45.638;11.714;2022-12-15T05:41:18;9.80;;;8.40;;
71648;SDS011;59492;45.638;11.714;2022-12-15T05:43:47;10.50;;;8.80;;
71648;SDS011;59492;45.638;11.714;2022-12-15T05:46:13;11.00;;;8.20;;
71648;SDS011;59492;45.638;11.714;2022-12-15T05:48:45;10.00;;;8.60;;
71648;SDS011;59492;45.638;11.714;2022-12-15T05:51:15;10.70;;;8.60;;
71648;SDS011;59492;45.638;11.714;2022-12-15T05:53:43;9.50;;;8.10;;
71648;SDS011;59492;45.638;11.714;2022-12-15T05:56:11;9.30;;;8.10;;
71648;SDS011;59492;45.638;11.714;2022-12-15T05:58:39;9.00;;;8.00;;
71648;SDS011;59492;45.638;11.714;2022-12-15T06:01:10;9.50;;;7.80;;
71648;SDS011;59492;45.638;11.714;2022-12-15T06:03:39;9.80;;;8.50;;
71648;SDS011;59492;45.638;11.714;2022-12-15T06:06:07;9.20;;;8.10;;
71648;SDS011;59492;45.638;11.714;2022-12-15T06:08:36;10.50;;;8.70;;
71648;SDS011;59492;45.638;11.714;2022-12-15T06:11:06;11.10;;;8.60;;
71648;SDS011;59492;45.638;11.714;2022-12-15T06:13:40;9.60;;;8.40;;
71648;SDS011;59492;45.638;11.714;2022-12-15T06:16:09;8.70;;;7.30;;
71648;SDS011;59492;45.638;11.714;2022-12-15T06:18:44;9.30;;;7.70;;
71648;SDS011;59492;45.638;11.714;2022-12-15T06:21:18;9.60;;;8.00;;
71648;SDS011;59492;45.638;11.714;2022-12-15T06:23:45;9.30;;;7.70;;
71648;SDS011;59492;45.638;11.714;2022-12-15T06:26:13;10.10;;;8.30;;
71648;SDS011;59492;45.638;11.714;2022-12-15T06:28:42;11.00;;;8.60;;
71648;SDS011;59492;45.638;11.714;2022-12-15T06:31:09;9.70;;;8.00;;
71648;SDS011;59492;45.638;11.714;2022-12-15T06:33:36;10.60;;;8.60;;
71648;SDS011;59492;45.638;11.714;2022-12-15T06:36:05;11.80;;;8.70;;
71648;SDS011;59492;45.638;11.714;2022-12-15T06:38:38;10.60;;;9.00;;
71648;SDS011;59492;45.638;11.714;2022-12-15T06:41:08;8.60;;;7.70;;
71648;SDS011;59492;45.638;11.714;2022-12-15T06:43:34;8.60;;;7.00;;
71648;SDS011;59492;45.638;11.714;2022-12-15T06:46:02;9.40;;;7.80;;
71648;SDS011;59492;45.638;11.714;2022-12-15T06:48:28;10.70;;;8.10;;
71648;SDS011;59492;45.638;11.714;2022-12-15T06:50:54;10.10;;;8.30;;
71648;SDS011;59492;45.638;11.714;2022-12-15T06:53:21;9.20;;;7.70;;
71648;SDS011;59492;45.638;11.714;2022-12-15T06:55:48;15.10;;;8.70;;
71648;SDS011;59492;45.638;11.714;2022-12-15T06:58:14;9.10;;;7.70;;
71648;SDS011;59492;45.638;11.714;2022-12-15T07:00:41;21.20;;;8.70;;
71648;SDS011;59492;45.638;11.714;2022-12-15T07:03:13;15.90;;;9.90;;
71648;SDS011;59492;45.638;11.714;2022-12-15T07:05:40;15.20;;;8.20;;
71648;SDS011;59492;45.638;11.714;2022-12-15T07:08:06;13.30;;;9.30;;
71648;SDS011;59492;45.638;11.714;2022-12-15T07:10:31;11.60;;;8.20;;
71648;SDS011;59492;45.638;11.714;2022-12-15T07:12:58;17.00;;;9.00;;
71648;SDS011;59492;45.638;11.714;2022-12-15T07:15:23;20.30;;;9.20;;
71648;SDS011;59492;45.638;11.714;2022-12-15T07:17:50;16.40;;;8.90;;
71648;SDS011;59492;45.638;11.714;2022-12-15T07:20:19;10.10;;;8.10;;
71648;SDS011;59492;45.638;11.714;2022-12-15T07:22:49;17.90;;;9.20;;
71648;SDS011;59492;45.638;11.714;2022-12-15T07:25:17;12.30;;;9.70;;
71648;SDS011;59492;45.638;11.714;2022-12-15T07:27:44;16.20;;;13.70;;
71648;SDS011;59492;45.638;11.714;2022-12-15T07:30:10;14.60;;;10.20;;
71648;SDS011;59492;45.638;11.714;2022-12-15T07:32:36;13.20;;;11.10;;
71648;SDS011;59492;45.638;11.714;2022-12-15T07:35:03;12.60;;;10.60;;
71648;SDS011;59492;45.638;11.714;2022-12-15T07:37:35;18.60;;;11.60;;
71648;SDS011;59492;45.638;11.714;2022-12-15T07:40:01;18.10;;;11.00;;
71648;SDS011;59492;45.638;11.714;2022-12-15T07:42:28;16.00;;;10.20;;
71648;SDS011;59492;45.638;11.714;2022-12-15T07:44:54;15.10;;;11.20;;
71648;SDS011;59492;45.638;11.714;2022-12-15T07:47:20;18.70;;;11.10;;
71648;SDS011;59492;45.638;11.714;2022-12-15T07:49:45;13.60;;;10.20;;
71648;SDS011;59492;45.638;11.714;2022-12-15T07:52:11;18.40;;;11.00;;
71648;SDS011;59492;45.638;11.714;2022-12-15T07:54:38;11.30;;;9.40;;
71648;SDS011;59492;45.638;11.714;2022-12-15T07:57:05;13.50;;;9.60;;
71648;SDS011;59492;45.638;11.714;2022-12-15T07:59:32;12.60;;;9.20;;
71648;SDS011;59492;45.638;11.714;2022-12-15T08:01:58;10.90;;;9.30;;
71648;SDS011;59492;45.638;11.714;2022-12-15T08:04:25;14.40;;;9.60;;
71648;SDS011;59492;45.638;11.714;2022-12-15T08:06:52;13.10;;;9.80;;
71648;SDS011;59492;45.638;11.714;2022-12-15T08:09:19;13.10;;;10.10;;
71648;SDS011;59492;45.638;11.714;2022-12-15T08:11:44;15.50;;;10.90;;
71648;SDS011;59492;45.638;11.714;2022-12-15T08:14:10;16.50;;;9.90;;
71648;SDS011;59492;45.638;11.714;2022-12-15T08:16:35;16.70;;;10.40;;
71648;SDS011;59492;45.638;11.714;2022-12-15T08:19:02;9.20;;;7.90;;
71648;SDS011;59492;45.638;11.714;2022-12-15T08:21:30;12.80;;;9.70;;
71648;SDS011;59492;45.638;11.714;2022-12-15T08:23:56;12.50;;;9.00;;
71648;SDS011;59492;45.638;11.714;2022-12-15T08:26:22;12.20;;;9.30;;
71648;SDS011;59492;45.638;11.714;2022-12-15T08:28:47;11.50;;;9.40;;
71648;SDS011;59492;45.638;11.714;2022-12-15T08:31:15;11.40;;;9.20;;
71648;SDS011;59492;45.638;11.714;2022-12-15T08:33:43;14.00;;;9.90;;
71648;SDS011;59492;45.638;11.714;2022-12-15T08:36:10;12.50;;;9.70;;
71648;SDS011;59492;45.638;11.714;2022-12-15T08:38:38;12.80;;;9.20;;
71648;SDS011;59492;45.638;11.714;2022-12-15T08:41:05;13.60;;;9.10;;
71648;SDS011;59492;45.638;11.714;2022-12-15T08:43:52;10.70;;;8.20;;
71648;SDS011;59492;45.638;11.714;2022-12-15T08:46:20;14.40;;;9.20;;
71648;SDS011;59492;45.638;11.714;2022-12-15T08:48:48;11.00;;;8.40;;
71648;SDS011;59492;45.638;11.714;2022-12-15T08:51:14;11.50;;;8.30;;
71648;SDS011;59492;45.638;11.714;2022-12-15T08:53:42;10.70;;;8.10;;
71648;SDS011;59492;45.638;11.714;2022-12-15T08:56:13;12.00;;;8.70;;
71648;SDS011;59492;45.638;11.714;2022-12-15T08:58:41;11.80;;;8.80;;
71648;SDS011;59492;45.638;11.714;2022-12-15T09:01:08;12.40;;;9.20;;
71648;SDS011;59492;45.638;11.714;2022-12-15T09:03:37;13.60;;;8.80;;
71648;SDS011;59492;45.638;11.714;2022-12-15T09:06:03;10.20;;;8.90;;
71648;SDS011;59492;45.638;11.714;2022-12-15T09:08:31;11.20;;;8.60;;
71648;SDS011;59492;45.638;11.714;2022-12-15T09:11:00;12.70;;;8.60;;
71648;SDS011;59492;45.638;11.714;2022-12-15T09:13:43;11.10;;;8.70;;
71648;SDS011;59492;45.638;11.714;2022-12-15T09:16:22;13.60;;;8.90;;
71648;SDS011;59492;45.638;11.714;2022-12-15T09:18:56;11.30;;;9.00;;
71648;SDS011;59492;45.638;11.714;2022-12-15T09:21:44;12.80;;;9.10;;
71648;SDS011;59492;45.638;11.714;2022-12-15T09:24:30;11.20;;;9.30;;
71648;SDS011;59492;45.638;11.714;2022-12-15T09:27:11;12.20;;;9.80;;
71648;SDS011;59492;45.638;11.714;2022-12-15T09:29:41;14.60;;;9.70;;
71648;SDS011;59492;45.638;11.714;2022-12-15T09:32:17;28.70;;;18.00;;
71648;SDS011;59492;45.638;11.714;2022-12-15T09:34:45;26.20;;;18.30;;
71648;SDS011;59492;45.638;11.714;2022-12-15T09:37:12;30.70;;;22.90;;
71648;SDS011;59492;45.638;11.714;2022-12-15T09:39:39;33.60;;;24.00;;
71648;SDS011;59492;45.638;11.714;2022-12-15T09:42:14;35.80;;;23.80;;
71648;SDS011;59492;45.638;11.714;2022-12-15T09:44:49;32.00;;;22.60;;
71648;SDS011;59492;45.638;11.714;2022-12-15T09:47:42;36.80;;;24.60;;
71648;SDS011;59492;45.638;11.714;2022-12-15T09:50:10;34.70;;;24.70;;
71648;SDS011;59492;45.638;11.714;2022-12-15T09:52:45;35.20;;;24.70;;
71648;SDS011;59492;45.638;11.714;2022-12-15T09:57:50;35.80;;;23.60;;
71648;SDS011;59492;45.638;11.714;2022-12-15T10:00:22;35.70;;;24.70;;
71648;SDS011;59492;45.638;11.714;2022-12-15T10:05:36;30.90;;;22.10;;
71648;SDS011;59492;45.638;11.714;2022-12-15T10:08:08;29.70;;;22.10;;
71648;SDS011;59492;45.638;11.714;2022-12-15T10:10:39;29.40;;;21.10;;
71648;SDS011;59492;45.638;11.714;2022-12-15T10:15:50;27.70;;;19.60;;
71648;SDS011;59492;45.638;11.714;2022-12-15T10:18:22;25.70;;;19.60;;
71648;SDS011;59492;45.638;11.714;2022-12-15T10:20:52;29.00;;;19.60;;
71648;SDS011;59492;45.638;11.714;2022-12-15T10:23:21;27.80;;;19.60;;
71648;SDS011;59492;45.638;11.714;2022-12-15T10:25:48;27.30;;;19.00;;
71648;SDS011;59492;45.638;11.714;2022-12-15T10:34:00;33.90;;;22.30;;
71648;SDS011;59492;45.638;11.714;2022-12-15T10:36:34;34.80;;;25.70;;
71648;SDS011;59492;45.638;11.714;2022-12-15T10:39:00;35.00;;;24.00;;
71648;SDS011;59492;45.638;11.714;2022-12-15T10:41:25;35.80;;;24.30;;
71648;SDS011;59492;45.638;11.714;2022-12-15T10:43:55;34.70;;;24.10;;
71648;SDS011;59492;45.638;11.714;2022-12-15T10:46:22;32.20;;;22.40;;
71648;SDS011;59492;45.638;11.714;2022-12-15T10:48:51;34.00;;;22.70;;
71648;SDS011;59492;45.638;11.714;2022-12-15T10:51:44;31.00;;;22.50;;
71648;SDS011;59492;45.638;11.714;2022-12-15T10:54:20;36.10;;;22.00;;
71648;SDS011;59492;45.638;11.714;2022-12-15T10:56:54;34.30;;;23.20;;
71648;SDS011;59492;45.638;11.714;2022-12-15T10:59:34;29.90;;;21.90;;
71648;SDS011;59492;45.638;11.714;2022-12-15T11:05:18;31.60;;;21.70;;
71648;SDS011;59492;45.638;11.714;2022-12-15T11:07:41;32.20;;;19.60;;
71648;SDS011;59492;45.638;11.714;2022-12-15T11:15:38;28.10;;;19.80;;
71648;SDS011;59492;45.638;11.714;2022-12-15T11:23:40;29.30;;;20.00;;
71648;SDS011;59492;45.638;11.714;2022-12-15T11:26:30;30.00;;;20.50;;
71648;SDS011;59492;45.638;11.714;2022-12-15T11:29:05;32.50;;;19.20;;
71648;SDS011;59492;45.638;11.714;2022-12-15T11:31:52;21.30;;;16.20;;
71648;SDS011;59492;45.638;11.714;2022-12-15T11:34:19;27.70;;;18.20;;
71648;SDS011;59492;45.638;11.714;2022-12-15T11:42:13;24.80;;;18.50;;
71648;SDS011;59492;45.638;11.714;2022-12-15T11:47:51;25.40;;;18.10;;
71648;SDS011;59492;45.638;11.714;2022-12-15T12:01:55;22.40;;;16.90;;
71648;SDS011;59492;45.638;11.714;2022-12-15T12:04:29;28.90;;;17.40;;
71648;SDS011;59492;45.638;11.714;2022-12-15T12:07:07;25.80;;;18.50;;
71648;SDS011;59492;45.638;11.714;2022-12-15T12:09:46;23.10;;;17.20;;
71648;SDS011;59492;45.638;11.714;2022-12-15T12:20:55;27.80;;;18.40;;
71648;SDS011;59492;45.638;11.714;2022-12-15T12:23:39;21.40;;;15.90;;
71648;SDS011;59492;45.638;11.714;2022-12-15T12:28:52;21.60;;;15.70;;
71648;SDS011;59492;45.638;11.714;2022-12-15T12:34:37;20.90;;;16.20;;
71648;SDS011;59492;45.638;11.714;2022-12-15T12:37:18;20.60;;;16.00;;
71648;SDS011;59492;45.638;11.714;2022-12-15T12:39:49;19.30;;;14.50;;
71648;SDS011;59492;45.638;11.714;2022-12-15T12:42:24;22.70;;;15.80;;
71648;SDS011;59492;45.638;11.714;2022-12-15T12:45:04;21.70;;;16.10;;
71648;SDS011;59492;45.638;11.714;2022-12-15T12:47:34;20.50;;;14.80;;
71648;SDS011;59492;45.638;11.714;2022-12-15T12:50:13;20.20;;;14.80;;
71648;SDS011;59492;45.638;11.714;2022-12-15T12:52:53;20.50;;;15.10;;
71648;SDS011;59492;45.638;11.714;2022-12-15T12:55:23;19.80;;;14.50;;
71648;SDS011;59492;45.638;11.714;2022-12-15T12:57:52;18.80;;;14.10;;
71648;SDS011;59492;45.638;11.714;2022-12-15T13:00:22;19.10;;;14.70;;
71648;SDS011;59492;45.638;11.714;2022-12-15T13:05:38;21.00;;;15.30;;
71648;SDS011;59492;45.638;11.714;2022-12-15T13:10:36;18.70;;;13.30;;
71648;SDS011;59492;45.638;11.714;2022-12-15T13:15:42;16.70;;;13.40;;
71648;SDS011;59492;45.638;11.714;2022-12-15T13:18:21;26.50;;;14.40;;
71648;SDS011;59492;45.638;11.714;2022-12-15T13:20:52;19.30;;;14.40;;
71648;SDS011;59492;45.638;11.714;2022-12-15T13:25:44;18.00;;;14.20;;
71648;SDS011;59492;45.638;11.714;2022-12-15T13:28:39;18.30;;;13.80;;
71648;SDS011;59492;45.638;11.714;2022-12-15T13:39:30;17.60;;;13.20;;
71648;SDS011;59492;45.638;11.714;2022-12-15T13:46:49;17.80;;;13.70;;
71648;SDS011;59492;45.638;11.714;2022-12-15T13:49:37;19.30;;;13.30;;
71648;SDS011;59492;45.638;11.714;2022-12-15T13:52:11;17.50;;;13.50;;
71648;SDS011;59492;45.638;11.714;2022-12-15T13:54:58;18.30;;;13.40;;
71648;SDS011;59492;45.638;11.714;2022-12-15T13:57:26;14.50;;;11.90;;
71648;SDS011;59492;45.638;11.714;2022-12-15T13:59:56;18.10;;;12.70;;
71648;SDS011;59492;45.638;11.714;2022-12-15T14:02:32;16.40;;;13.30;;
71648;SDS011;59492;45.638;11.714;2022-12-15T14:05:10;16.70;;;13.20;;
71648;SDS011;59492;45.638;11.714;2022-12-15T14:07:37;19.20;;;12.70;;
71648;SDS011;59492;45.638;11.714;2022-12-15T14:10:04;16.50;;;12.60;;
71648;SDS011;59492;45.638;11.714;2022-12-15T14:12:40;14.90;;;12.20;;
71648;SDS011;59492;45.638;11.714;2022-12-15T14:15:11;19.30;;;13.80;;
71648;SDS011;59492;45.638;11.714;2022-12-15T14:17:38;15.00;;;11.80;;
71648;SDS011;59492;45.638;11.714;2022-12-15T14:20:12;16.40;;;12.20;;
71648;SDS011;59492;45.638;11.714;2022-12-15T14:22:43;12.70;;;10.90;;
71648;SDS011;59492;45.638;11.714;2022-12-15T14:25:28;16.10;;;13.00;;
71648;SDS011;59492;45.638;11.714;2022-12-15T14:27:54;16.80;;;13.20;;
71648;SDS011;59492;45.638;11.714;2022-12-15T14:30:30;16.00;;;11.60;;
71648;SDS011;59492;45.638;11.714;2022-12-15T14:35:27;16.60;;;13.30;;
71648;SDS011;59492;45.638;11.714;2022-12-15T14:37:56;14.20;;;11.10;;
71648;SDS011;59492;45.638;11.714;2022-12-15T14:40:24;16.70;;;11.60;;
71648;SDS011;59492;45.638;11.714;2022-12-15T14:42:51;14.80;;;11.30;;
71648;SDS011;59492;45.638;11.714;2022-12-15T14:45:25;15.40;;;12.00;;
71648;SDS011;59492;45.638;11.714;2022-12-15T14:47:54;15.30;;;12.00;;
71648;SDS011;59492;45.638;11.714;2022-12-15T14:50:23;16.80;;;12.10;;
71648;SDS011;59492;45.638;11.714;2022-12-15T14:52:52;16.20;;;12.70;;
71648;SDS011;59492;45.638;11.714;2022-12-15T14:55:29;14.90;;;11.90;;
71648;SDS011;59492;45.638;11.714;2022-12-15T14:57:57;14.30;;;11.50;;
71648;SDS011;59492;45.638;11.714;2022-12-15T15:00:30;14.10;;;11.60;;
71648;SDS011;59492;45.638;11.714;2022-12-15T15:03:14;15.70;;;11.00;;
71648;SDS011;59492;45.638;11.714;2022-12-15T15:05:43;12.90;;;9.70;;
71648;SDS011;59492;45.638;11.714;2022-12-15T15:08:15;11.10;;;9.30;;
71648;SDS011;59492;45.638;11.714;2022-12-15T15:10:46;13.30;;;9.30;;
71648;SDS011;59492;45.638;11.714;2022-12-15T15:13:19;12.00;;;9.30;;
71648;SDS011;59492;45.638;11.714;2022-12-15T15:15:56;11.60;;;8.70;;
71648;SDS011;59492;45.638;11.714;2022-12-15T15:18:28;13.80;;;9.70;;
71648;SDS011;59492;45.638;11.714;2022-12-15T15:20:56;9.70;;;8.00;;
71648;SDS011;59492;45.638;11.714;2022-12-15T15:23:24;11.60;;;8.90;;
71648;SDS011;59492;45.638;11.714;2022-12-15T15:26:05;9.70;;;8.30;;
71648;SDS011;59492;45.638;11.714;2022-12-15T15:28:39;11.70;;;9.40;;
71648;SDS011;59492;45.638;11.714;2022-12-15T15:34:02;9.90;;;8.00;;
71648;SDS011;59492;45.638;11.714;2022-12-15T15:36:35;11.10;;;8.70;;
71648;SDS011;59492;45.638;11.714;2022-12-15T15:39:03;15.20;;;9.60;;
71648;SDS011;59492;45.638;11.714;2022-12-15T15:41:36;9.80;;;8.40;;
71648;SDS011;59492;45.638;11.714;2022-12-15T15:44:01;12.00;;;8.50;;
71648;SDS011;59492;45.638;11.714;2022-12-15T15:46:34;11.10;;;8.70;;
71648;SDS011;59492;45.638;11.714;2022-12-15T15:49:07;15.60;;;8.50;;
71648;SDS011;59492;45.638;11.714;2022-12-15T15:51:37;10.60;;;8.30;;
71648;SDS011;59492;45.638;11.714;2022-12-15T15:54:12;9.30;;;7.60;;
71648;SDS011;59492;45.638;11.714;2022-12-15T15:56:40;10.90;;;8.50;;
71648;SDS011;59492;45.638;11.714;2022-12-15T15:59:12;9.20;;;7.50;;
71648;SDS011;59492;45.638;11.714;2022-12-15T16:01:42;7.40;;;6.70;;
71648;SDS011;59492;45.638;11.714;2022-12-15T16:04:20;10.30;;;7.50;;
71648;SDS011;59492;45.638;11.714;2022-12-15T16:06:49;11.20;;;8.10;;
71648;SDS011;59492;45.638;11.714;2022-12-15T16:09:31;11.10;;;8.50;;
71648;SDS011;59492;45.638;11.714;2022-12-15T16:11:56;10.60;;;7.90;;
71648;SDS011;59492;45.638;11.714;2022-12-15T16:14:23;12.60;;;8.20;;
71648;SDS011;59492;45.638;11.714;2022-12-15T16:16:49;9.80;;;8.10;;
71648;SDS011;59492;45.638;11.714;2022-12-15T16:19:14;11.50;;;8.40;;
71648;SDS011;59492;45.638;11.714;2022-12-15T16:21:40;9.30;;;7.90;;
71648;SDS011;59492;45.638;11.714;2022-12-15T16:24:09;9.70;;;6.80;;
71648;SDS011;59492;45.638;11.714;2022-12-15T16:26:38;8.90;;;6.90;;
71648;SDS011;59492;45.638;11.714;2022-12-15T16:29:15;10.30;;;7.60;;
71648;SDS011;59492;45.638;11.714;2022-12-15T16:31:43;9.70;;;7.70;;
71648;SDS011;59492;45.638;11.714;2022-12-15T16:34:12;10.10;;;7.80;;
71648;SDS011;59492;45.638;11.714;2022-12-15T16:36:40;9.90;;;7.40;;
71648;SDS011;59492;45.638;11.714;2022-12-15T16:41:53;9.30;;;7.40;;
71648;SDS011;59492;45.638;11.714;2022-12-15T16:44:20;8.70;;;6.50;;
71648;SDS011;59492;45.638;11.714;2022-12-15T16:46:46;8.10;;;6.60;;
71648;SDS011;59492;45.638;11.714;2022-12-15T16:49:11;8.30;;;7.10;;
71648;SDS011;59492;45.638;11.714;2022-12-15T16:51:38;9.30;;;7.20;;
71648;SDS011;59492;45.638;11.714;2022-12-15T16:54:06;9.40;;;7.10;;
71648;SDS011;59492;45.638;11.714;2022-12-15T16:56:42;9.10;;;6.80;;